Time;durP1;ratioP1;P1;durP2;ratioP2;P2;SDS_P1;SDS_P2;PMS_P1;PMS_P2;Temp;Humidity;BMP_temperature;BMP_pressure;BME280_temperature;BME280_humidity;BME280_pressure;Samples;Min_cycle;Max_cycle;Signal;HPM_P1;HPM_P2
2021/04/04 12:58:39;;;;;;;10.05;3.72;;;21.50;44.80;;;;;;5025611;27;20310;-77
2021/04/04 13:01:06;;;;;;;7.63;3.08;;;20.70;43.20;;;;;;5008605;28;20036;-77
2021/04/04 13:03:37;;;;;;;8.30;3.28;;;21.80;42.80;;;;;;5024998;28;20083;-77
2021/04/04 13:06:03;;;;;;;11.88;4.18;;;21.70;42.20;;;;;;5023682;28;20026;-77
2021/04/04 13:08:32;;;;;;;10.05;3.85;;;22.10;41.80;;;;;;5025398;28;20104;-76
2021/04/04 13:11:00;;;;;;;10.57;3.70;;;22.80;41.30;;;;;;5024691;28;20036;-76
2021/04/04 13:13:34;;;;;;;11.65;3.58;;;22.40;41.00;;;;;;5023342;28;20044;-76
2021/04/04 13:16:05;;;;;;;10.73;3.83;;;22.20;41.20;;;;;;5025066;28;20512;-76
2021/04/04 13:18:31;;;;;;;6.20;3.50;;;21.80;39.80;;;;;;5025212;28;20018;-75
2021/04/04 13:21:02;;;;;;;8.00;3.60;;;21.70;41.40;;;;;;5024716;28;20370;-76
2021/04/04 13:23:37;;;;;;;6.68;3.50;;;21.50;41.40;;;;;;5023884;28;20026;-76
2021/04/04 13:26:07;;;;;;;6.32;3.33;;;22.10;40.90;;;;;;5024850;28;20043;-76
2021/04/04 13:28:35;;;;;;;8.20;4.72;;;22.60;39.90;;;;;;5025182;28;20096;-76
2021/04/04 13:31:19;;;;;;;7.47;3.50;;;22.80;40.00;;;;;;5025055;28;20030;-76
2021/04/04 13:33:46;;;;;;;7.95;3.70;;;23.50;38.50;;;;;;5024189;28;20096;-76
2021/04/04 13:36:12;;;;;;;8.90;3.47;;;23.10;38.20;;;;;;5023651;28;20026;-76
2021/04/04 13:38:38;;;;;;;8.02;3.38;;;22.30;39.60;;;;;;5024754;28;20045;-76
2021/04/04 13:41:05;;;;;;;9.60;3.75;;;22.60;40.40;;;;;;5024674;28;20034;-76
2021/04/04 13:43:41;;;;;;;6.28;3.40;;;22.10;39.80;;;;;;5024014;28;20104;-76
2021/04/04 13:46:09;;;;;;;6.88;3.67;;;22.60;40.40;;;;;;5023535;28;20082;-76
2021/04/04 13:48:35;;;;;;;9.50;4.38;;;23.10;39.40;;;;;;5023639;28;20030;-76
2021/04/04 13:51:01;;;;;;;6.55;3.63;;;24.10;39.40;;;;;;5023400;28;20030;-76
2021/04/04 13:53:33;;;;;;;9.73;4.38;;;25.00;39.90;;;;;;5023767;28;20022;-76
2021/04/04 13:56:17;;;;;;;7.68;3.80;;;24.50;39.20;;;;;;5024704;28;20034;-77
2021/04/04 13:58:46;;;;;;;10.75;3.72;;;23.90;40.00;;;;;;5024765;28;20030;-76
2021/04/04 14:01:31;;;;;;;8.18;4.10;;;24.20;39.60;;;;;;5024631;28;20101;-76
2021/04/04 14:04:01;;;;;;;7.97;3.83;;;24.20;40.20;;;;;;5023519;28;20036;-75
2021/04/04 14:06:38;;;;;;;7.45;3.55;;;25.10;38.60;;;;;;5023024;28;20459;-76
2021/04/04 14:09:06;;;;;;;8.50;3.83;;;25.80;36.90;;;;;;5014965;28;20041;-76
2021/04/04 14:11:34;;;;;;;12.57;4.60;;;25.00;37.40;;;;;;5010322;28;20132;-76
2021/04/04 14:14:03;;;;;;;8.05;3.92;;;24.60;38.30;;;;;;5009396;28;20040;-76
2021/04/04 14:16:30;;;;;;;8.10;3.85;;;25.20;37.40;;;;;;5010813;28;20045;-76
2021/04/04 14:18:55;;;;;;;7.38;3.75;;;24.90;38.90;;;;;;5010527;28;20026;-76
2021/04/04 14:21:21;;;;;;;8.65;3.60;;;25.40;38.10;;;;;;5010113;28;20158;-75
2021/04/04 14:23:47;;;;;;;9.05;3.83;;;25.60;37.50;;;;;;5010814;28;20045;-76
2021/04/04 14:26:13;;;;;;;10.02;4.10;;;25.50;37.00;;;;;;5009641;28;20078;-76
2021/04/04 14:28:39;;;;;;;8.75;4.30;;;25.30;37.40;;;;;;5009826;28;20037;-76
2021/04/04 14:31:05;;;;;;;9.90;4.40;;;25.70;37.90;;;;;;5010537;28;20026;-76
2021/04/04 14:33:32;;;;;;;9.60;4.00;;;25.60;38.00;;;;;;5010004;28;20033;-76
2021/04/04 14:35:58;;;;;;;8.07;3.92;;;26.00;38.60;;;;;;5010819;28;20115;-76
2021/04/04 14:38:24;;;;;;;10.85;4.13;;;24.90;37.70;;;;;;5010798;28;20061;-76
2021/04/04 14:40:50;;;;;;;9.15;4.07;;;25.10;38.30;;;;;;5009540;28;20083;-75
2021/04/04 14:46:00;;;;;;;8.77;4.40;;;26.10;36.80;;;;;;5010659;28;20036;-75
2021/04/04 14:48:26;;;;;;;;;;;26.40;37.70;;;;;;5009717;28;20037;-76
2021/04/04 14:50:52;;;;;;;8.20;4.05;;;24.90;37.30;;;;;;5010171;28;19910;-76
2021/04/04 14:53:18;;;;;;;9.48;4.20;;;24.60;37.80;;;;;;5010432;28;20026;-77
2021/04/04 14:55:46;;;;;;;9.65;4.80;;;24.40;37.80;;;;;;5010211;28;20166;-76
2021/04/04 14:58:13;;;;;;;11.30;4.75;;;24.80;38.20;;;;;;5008596;28;20045;-76
2021/04/04 15:00:40;;;;;;;8.13;3.75;;;25.40;37.80;;;;;;5009982;28;20034;-76
2021/04/04 15:03:06;;;;;;;8.77;3.60;;;26.10;37.30;;;;;;5025885;28;20026;-73
2021/04/04 15:05:33;;;;;;;8.82;3.67;;;26.20;36.60;;;;;;5051313;28;20109;-73
2021/04/04 15:07:58;;;;;;;8.50;4.53;;;26.60;36.70;;;;;;5036266;28;20455;-73
2021/04/04 15:10:24;;;;;;;9.23;3.70;;;27.00;36.20;;;;;;5024979;28;20109;-76
2021/04/04 15:12:50;;;;;;;9.43;3.67;;;26.60;36.10;;;;;;4994880;28;20740;-76
2021/04/04 15:15:16;;;;;;;9.20;4.15;;;26.50;36.90;;;;;;5005708;28;20066;-75
2021/04/04 15:17:42;;;;;;;8.65;4.03;;;25.90;36.70;;;;;;5001291;28;20125;-75
2021/04/04 15:20:09;;;;;;;10.30;4.13;;;26.40;36.80;;;;;;5006396;28;20048;-75
2021/04/04 15:22:38;;;;;;;8.30;4.18;;;26.60;36.70;;;;;;4992505;28;20030;-76
2021/04/04 15:25:05;;;;;;;7.53;3.88;;;25.10;37.20;;;;;;5011485;28;20027;-76
2021/04/04 15:27:30;;;;;;;8.48;4.82;;;24.50;38.10;;;;;;4998351;28;20042;-76
2021/04/04 15:29:56;;;;;;;8.18;4.00;;;25.00;37.30;;;;;;5006519;28;20116;-77
2021/04/04 15:32:22;;;;;;;9.63;4.00;;;25.80;36.80;;;;;;4998572;28;20087;-78
2021/04/04 15:34:47;;;;;;;8.95;4.68;;;25.60;36.70;;;;;;4994390;28;20034;-77
2021/04/04 15:37:13;;;;;;;9.00;3.83;;;26.40;36.80;;;;;;4994702;28;20047;-76
2021/04/04 15:39:38;;;;;;;11.32;4.00;;;26.20;36.70;;;;;;4993974;28;20030;-77
2021/04/04 15:42:04;;;;;;;12.70;4.25;;;26.30;36.30;;;;;;5003636;28;20714;-78
2021/04/04 15:44:30;;;;;;;11.05;4.93;;;26.20;36.40;;;;;;4987331;28;20030;-77
2021/04/04 15:46:56;;;;;;;10.55;4.75;;;25.60;37.20;;;;;;4990954;28;20503;-77
2021/04/04 15:49:21;;;;;;;11.55;4.38;;;24.60;37.60;;;;;;4988706;28;20046;-77
2021/04/04 15:51:47;;;;;;;8.45;3.95;;;24.80;37.80;;;;;;4996132;28;20011;-76
2021/04/04 15:54:12;;;;;;;8.68;4.00;;;24.80;37.20;;;;;;4993827;28;20030;-77
2021/04/04 15:56:38;;;;;;;11.57;4.93;;;25.50;37.70;;;;;;5004874;28;20090;-78
2021/04/04 15:59:04;;;;;;;10.43;4.57;;;24.80;37.40;;;;;;5005207;28;20030;-75
2021/04/04 16:01:30;;;;;;;9.75;4.40;;;24.80;37.90;;;;;;5003912;28;20026;-75
2021/04/04 16:03:55;;;;;;;10.93;4.60;;;25.40;37.30;;;;;;5004399;28;20037;-72
2021/04/04 16:06:23;;;;;;;13.05;4.15;;;26.00;36.60;;;;;;5005045;28;20018;-75
2021/04/04 16:08:49;;;;;;;9.95;4.18;;;26.30;37.00;;;;;;5004602;28;20026;-73
2021/04/04 16:11:36;;;;;;;12.45;4.40;;;26.70;37.40;;;;;;5005672;28;20026;-72
2021/04/04 16:14:02;;;;;;;13.43;5.43;;;26.60;35.80;;;;;;5007036;28;20026;-74
2021/04/04 16:16:27;;;;;;;13.85;8.77;;;25.90;36.80;;;;;;5006869;28;20038;-74
2021/04/04 16:18:53;;;;;;;9.95;5.32;;;25.70;37.60;;;;;;5008484;28;20061;-76
2021/04/04 16:21:19;;;;;;;12.02;4.32;;;25.60;37.30;;;;;;5007525;28;20064;-77
2021/04/04 16:23:45;;;;;;;9.25;4.43;;;25.60;37.50;;;;;;5008570;28;20106;-76
2021/04/04 16:26:11;;;;;;;10.23;4.22;;;25.40;38.40;;;;;;5007597;28;20030;-76
2021/04/04 16:28:36;;;;;;;7.78;3.97;;;24.70;38.40;;;;;;5008687;28;20034;-76
2021/04/04 16:31:02;;;;;;;14.18;4.00;;;24.30;39.00;;;;;;5008008;28;20060;-75
2021/04/04 16:33:28;;;;;;;10.23;4.28;;;24.00;39.00;;;;;;5002771;28;20041;-74
2021/04/04 16:35:54;;;;;;;11.52;4.95;;;24.30;39.30;;;;;;5002141;28;20117;-74
2021/04/04 16:38:19;;;;;;;11.57;5.28;;;23.90;39.40;;;;;;4992466;28;20521;-72
2021/04/04 16:40:45;;;;;;;10.68;5.13;;;23.50;40.20;;;;;;4984381;28;20033;-73
2021/04/04 16:43:12;;;;;;;11.90;4.55;;;23.10;40.50;;;;;;4983947;28;20129;-72
2021/04/04 16:45:38;;;;;;;12.05;4.45;;;23.00;40.70;;;;;;4984201;28;20026;-72
2021/04/04 16:48:06;;;;;;;12.95;4.60;;;22.70;41.50;;;;;;4997164;28;20558;-73
2021/04/04 16:50:33;;;;;;;14.05;6.50;;;22.90;40.40;;;;;;5003412;28;20026;-74
2021/04/04 16:52:59;;;;;;;12.27;5.13;;;22.70;40.80;;;;;;5003314;28;20513;-73
2021/04/04 16:55:26;;;;;;;10.18;5.28;;;22.30;41.30;;;;;;5002156;28;20513;-73
2021/04/04 16:57:52;;;;;;;11.35;4.53;;;22.10;41.90;;;;;;4999610;28;20690;-73
2021/04/04 17:00:19;;;;;;;10.95;4.88;;;21.90;42.10;;;;;;4997966;28;20022;-73
2021/04/04 17:02:45;;;;;;;13.02;7.20;;;21.70;42.60;;;;;;4991076;28;20057;-73
2021/04/04 17:05:13;;;;;;;13.73;7.35;;;20.90;43.70;;;;;;5003394;28;20121;-73
2021/04/04 17:07:39;;;;;;;11.63;5.22;;;20.70;44.40;;;;;;5003454;28;20030;-73
2021/04/04 17:10:10;;;;;;;13.00;5.95;;;20.20;44.40;;;;;;4997159;28;20092;-73
2021/04/04 17:12:37;;;;;;;10.45;5.47;;;20.10;43.00;;;;;;5003630;28;20687;-73
2021/04/04 17:15:04;;;;;;;25.10;14.52;;;19.80;45.70;;;;;;5003442;28;20030;-73
2021/04/04 17:17:30;;;;;;;11.75;4.45;;;19.40;46.10;;;;;;4994448;28;20042;-73
2021/04/04 17:19:56;;;;;;;10.88;4.10;;;19.20;47.00;;;;;;4985435;28;20086;-73
2021/04/04 17:22:22;;;;;;;10.65;4.30;;;18.70;47.20;;;;;;5002793;28;20065;-73
2021/04/04 17:24:48;;;;;;;13.73;4.80;;;18.20;48.60;;;;;;4997208;28;20018;-73
2021/04/04 17:27:14;;;;;;;12.85;6.07;;;17.80;49.00;;;;;;4983317;28;20109;-73
2021/04/04 17:29:39;;;;;;;10.43;5.10;;;17.30;49.80;;;;;;5008766;28;20040;-73
2021/04/04 17:32:07;;;;;;;13.90;5.55;;;17.00;50.30;;;;;;5003404;28;20034;-73
2021/04/04 17:34:33;;;;;;;13.23;5.13;;;16.80;50.90;;;;;;5001498;28;20034;-73
2021/04/04 17:36:58;;;;;;;13.13;5.78;;;16.60;51.60;;;;;;5002372;28;20026;-73
2021/04/04 17:39:24;;;;;;;15.38;5.43;;;16.20;52.10;;;;;;4998812;28;20026;-73
2021/04/04 17:41:50;;;;;;;11.10;4.97;;;15.70;52.90;;;;;;4995365;28;20110;-73
2021/04/04 17:44:15;;;;;;;10.18;4.45;;;15.30;53.50;;;;;;5005213;28;20413;-73
2021/04/04 17:46:41;;;;;;;13.63;5.82;;;15.00;54.50;;;;;;4998825;28;20030;-73
2021/04/04 17:49:08;;;;;;;13.73;5.82;;;14.80;55.40;;;;;;5003801;28;20042;-72
2021/04/04 17:51:34;;;;;;;9.85;4.70;;;14.70;56.20;;;;;;4999755;28;20030;-72
2021/04/04 17:53:59;;;;;;;12.82;4.85;;;14.20;58.00;;;;;;5005796;28;20502;-74
2021/04/04 17:56:25;;;;;;;14.05;5.50;;;14.30;58.50;;;;;;5006032;28;20130;-74
2021/04/04 17:58:51;;;;;;;13.57;5.20;;;13.70;58.90;;;;;;4987890;28;20375;-74
2021/04/04 18:01:16;;;;;;;13.88;5.43;;;13.80;59.60;;;;;;4986692;28;20792;-74
2021/04/04 18:03:44;;;;;;;13.48;4.78;;;13.10;60.40;;;;;;5004657;28;20654;-72
2021/04/04 18:10:55;;;;;;;14.95;5.53;;;13.30;63.00;;;;;;5004312;28;20034;-76
2021/04/04 18:11:33;;;;;;;16.40;5.65;;;12.50;62.00;;;;;;4993131;28;20038;-75
2021/04/04 18:14:01;;;;;;;16.75;7.05;;;12.20;63.60;;;;;;4989715;28;20037;-76
2021/04/04 18:16:27;;;;;;;17.40;6.90;;;12.00;63.20;;;;;;4993558;28;20669;-75
2021/04/04 18:18:53;;;;;;;26.95;10.85;;;11.70;65.80;;;;;;4995002;28;20037;-75
2021/04/04 18:21:19;;;;;;;19.40;7.03;;;11.80;66.70;;;;;;4987648;28;20034;-75
2021/04/04 18:23:46;;;;;;;14.25;5.18;;;11.50;67.70;;;;;;5004140;28;20060;-75
2021/04/04 18:26:16;;;;;;;15.98;5.70;;;11.40;68.30;;;;;;4988881;28;20115;-75
2021/04/04 18:28:46;;;;;;;15.95;5.72;;;11.30;69.40;;;;;;5005127;28;20037;-74
2021/04/04 18:31:13;;;;;;;14.02;5.07;;;11.10;68.80;;;;;;5005349;28;20026;-77
2021/04/04 18:33:40;;;;;;;16.55;5.78;;;11.10;72.50;;;;;;4997336;28;20625;-76
2021/04/04 18:36:06;;;;;;;14.32;5.25;;;11.10;74.10;;;;;;5005199;28;20113;-75
2021/04/04 18:38:32;;;;;;;17.73;5.68;;;10.60;80.50;;;;;;4985742;28;20053;-75
2021/04/04 18:40:58;;;;;;;16.08;6.03;;;11.00;87.80;;;;;;4979796;28;20566;-73
2021/04/04 18:43:24;;;;;;;10.38;5.25;;;10.10;91.30;;;;;;5001249;28;20130;-73
2021/04/04 18:45:49;;;;;;;16.08;6.50;;;10.30;93.60;;;;;;5003994;28;20058;-73
2021/04/04 18:48:17;;;;;;;13.02;5.55;;;10.30;95.20;;;;;;4987938;28;20084;-74
2021/04/04 18:50:43;;;;;;;15.73;5.55;;;9.80;96.70;;;;;;4985726;28;20136;-73
2021/04/04 18:53:08;;;;;;;16.27;5.63;;;9.70;99.10;;;;;;4999576;28;20049;-73
2021/04/04 18:55:35;;;;;;;10.55;5.05;;;9.60;99.90;;;;;;5006088;28;20034;-73
